createdAt,value
2018-02-06T00:00:44.855Z,10.90
2018-02-06T00:03:12.487Z,14.10
2018-02-06T00:05:40.247Z,12.33
2018-02-06T00:08:08.659Z,12.23
2018-02-06T00:10:37.359Z,12.47
2018-02-06T00:13:05.003Z,9.87
2018-02-06T00:15:32.682Z,11.33
2018-02-06T00:18:00.335Z,11.90
2018-02-06T00:20:28.016Z,12.00
2018-02-06T00:22:55.666Z,11.27
2018-02-06T00:25:23.303Z,11.10
2018-02-06T00:27:50.944Z,10.93
2018-02-06T00:30:18.678Z,9.77
2018-02-06T00:32:46.390Z,11.80
2018-02-06T00:35:14.110Z,8.63
2018-02-06T00:37:42.511Z,12.13
2018-02-06T00:40:10.157Z,14.67
2018-02-06T00:42:38.609Z,8.37
2018-02-06T00:45:06.282Z,10.17
2018-02-06T00:47:34.749Z,11.43
2018-02-06T00:50:02.439Z,12.53
2018-02-06T00:52:30.895Z,13.07
2018-02-06T00:54:58.589Z,15.20
2018-02-06T00:57:26.227Z,12.07
2018-02-06T00:59:54.651Z,14.20
2018-02-06T01:02:22.376Z,16.67
2018-02-06T01:04:50.807Z,12.17
2018-02-06T01:07:18.559Z,16.00
2018-02-06T01:09:46.225Z,14.63
2018-02-06T01:12:13.897Z,13.87
2018-02-06T01:14:41.563Z,13.40
2018-02-06T01:17:09.227Z,12.80
2018-02-06T01:19:36.920Z,13.43
2018-02-06T01:22:05.341Z,16.90
2018-02-06T01:24:33.002Z,14.07
2018-02-06T01:27:00.685Z,14.03
2018-02-06T01:29:28.361Z,13.30
2018-02-06T01:31:56.007Z,15.77
2018-02-06T01:34:23.660Z,14.30
2018-02-06T01:36:51.294Z,15.23
2018-02-06T01:39:18.967Z,14.63
2018-02-06T01:41:46.619Z,14.63
2018-02-06T01:44:14.263Z,15.20
2018-02-06T01:46:41.900Z,15.80
2018-02-06T01:49:10.329Z,16.67
2018-02-06T01:51:37.987Z,14.17
2018-02-06T01:54:05.648Z,15.73
2018-02-06T01:56:33.308Z,16.57
2018-02-06T01:59:00.952Z,16.17
2018-02-06T02:01:28.625Z,13.90
2018-02-06T02:03:56.290Z,14.57
2018-02-06T02:06:23.954Z,19.00
2018-02-06T02:08:52.007Z,15.50
2018-02-06T02:11:19.669Z,14.53
2018-02-06T02:13:47.352Z,15.40
2018-02-06T02:16:15.006Z,14.40
2018-02-06T02:18:42.768Z,16.50
2018-02-06T02:21:10.472Z,14.43
2018-02-06T02:23:38.164Z,15.67
2018-02-06T02:26:05.802Z,15.63
2018-02-06T02:28:34.220Z,15.10
2018-02-06T02:31:01.891Z,14.70
2018-02-06T02:33:29.577Z,15.27
2018-02-06T02:35:57.219Z,17.17
2018-02-06T02:38:25.008Z,18.80
2018-02-06T02:40:52.687Z,15.90
2018-02-06T04:39:10.449Z,19.40
2018-02-06T04:41:38.165Z,18.07
2018-02-06T04:44:05.842Z,19.53
2018-02-06T04:46:34.271Z,18.87
2018-02-06T04:49:01.986Z,21.77
2018-02-06T04:51:30.438Z,20.97
2018-02-06T04:53:58.126Z,19.70
2018-02-06T04:56:26.594Z,18.30
2018-02-06T04:58:54.263Z,20.17
2018-02-06T05:01:22.675Z,20.27
2018-02-06T05:03:50.332Z,19.63
2018-02-06T05:06:18.030Z,22.60
2018-02-06T05:08:45.687Z,23.77
2018-02-06T05:11:13.374Z,17.90
2018-02-06T05:13:41.050Z,17.83
2018-02-06T05:16:09.473Z,20.77
2018-02-06T05:18:37.175Z,20.90
2018-02-06T05:21:04.880Z,18.73
2018-02-06T05:23:32.597Z,20.90
2018-02-06T05:26:00.254Z,20.47
2018-02-06T05:28:27.937Z,20.87
2018-02-06T05:30:56.380Z,19.03
2018-02-06T05:33:24.816Z,19.23
2018-02-06T05:35:52.455Z,21.60
2018-02-06T05:38:20.886Z,20.40
2018-02-06T05:40:48.534Z,21.07
2018-02-06T05:43:16.174Z,19.20
2018-02-06T05:45:43.874Z,22.13
2018-02-06T05:48:11.522Z,20.83
2018-02-06T05:50:39.182Z,18.70
2018-02-06T05:53:06.826Z,20.03
2018-02-06T05:55:34.522Z,20.37
2018-02-06T05:58:02.210Z,18.37
2018-02-06T06:00:30.655Z,20.53
2018-02-06T06:02:59.077Z,21.23
2018-02-06T06:05:27.507Z,18.40
2018-02-06T06:07:55.174Z,18.90
2018-02-06T06:10:22.815Z,18.63
2018-02-06T06:12:50.463Z,20.03
2018-02-06T06:15:18.135Z,19.77
2018-02-06T06:17:45.789Z,19.73
2018-02-06T06:20:13.450Z,20.73
2018-02-06T06:22:41.083Z,18.27
2018-02-06T06:25:09.518Z,18.00
2018-02-06T06:27:37.169Z,19.73
2018-02-06T06:30:04.830Z,22.10
2018-02-06T06:32:32.485Z,21.33
2018-02-06T06:35:00.142Z,19.43
2018-02-06T06:37:27.808Z,19.60
2018-02-06T06:39:56.212Z,19.03
2018-02-06T06:42:23.880Z,18.17
2018-02-06T06:44:51.547Z,19.97
2018-02-06T06:47:20.011Z,21.27
2018-02-06T06:49:47.664Z,19.27
2018-02-06T06:52:15.327Z,18.67
2018-02-06T06:54:42.992Z,18.37
2018-02-06T06:57:10.639Z,18.37
2018-02-06T06:59:38.296Z,18.40
2018-02-06T07:02:06.434Z,21.10
2018-02-06T07:04:34.439Z,17.27
2018-02-06T07:07:02.095Z,17.83
2018-02-06T07:09:32.559Z,16.73
2018-02-06T07:12:00.997Z,15.27
2018-02-06T07:14:29.498Z,15.13
2018-02-06T07:16:57.173Z,16.80
2018-02-06T07:19:25.599Z,19.67
2018-02-06T07:21:53.376Z,20.20
2018-02-06T07:24:21.042Z,16.37
2018-02-06T07:26:48.706Z,18.50
2018-02-06T07:29:16.425Z,19.40
2018-02-06T07:31:44.421Z,18.97
2018-02-06T07:34:12.398Z,19.73
2018-02-06T07:36:40.139Z,19.70
2018-02-06T07:39:07.854Z,18.83
2018-02-06T07:41:35.512Z,18.43
2018-02-06T07:44:03.258Z,17.47
2018-02-06T07:46:30.968Z,15.10
2018-02-06T07:48:58.629Z,17.83
2018-02-06T07:51:26.280Z,17.80
2018-02-06T07:53:54.710Z,16.77
2018-02-06T07:56:23.127Z,16.63
2018-02-06T07:58:50.880Z,14.57
2018-02-06T08:01:18.586Z,15.60
2018-02-06T08:03:46.232Z,14.47
2018-02-06T08:06:13.942Z,14.10
2018-02-06T08:08:42.369Z,17.30
2018-02-06T08:11:10.806Z,16.97
2018-02-06T08:13:38.474Z,15.73
2018-02-06T08:16:06.123Z,16.00
2018-02-06T08:18:33.840Z,15.40
2018-02-06T08:21:01.558Z,13.00
2018-02-06T08:23:29.241Z,17.27
2018-02-06T08:25:57.750Z,15.90
2018-02-06T08:28:25.404Z,13.20
2018-02-06T08:30:53.061Z,13.00
2018-02-06T08:33:20.719Z,16.40
2018-02-06T08:35:48.429Z,16.43
2018-02-06T08:38:16.899Z,21.77
2018-02-06T08:40:44.581Z,19.43
2018-02-06T08:43:12.250Z,21.10
2018-02-06T08:45:39.926Z,25.63
2018-02-06T08:48:08.373Z,19.57
2018-02-06T08:50:36.040Z,24.17
2018-02-06T08:53:03.726Z,22.03
2018-02-06T08:55:32.137Z,21.53
2018-02-06T08:58:00.123Z,23.80
2018-02-06T09:00:27.779Z,24.47
2018-02-06T09:02:55.450Z,21.90
2018-02-06T09:05:23.106Z,23.07
2018-02-06T09:07:51.540Z,19.77
2018-02-06T09:10:19.977Z,24.37
2018-02-06T09:12:47.618Z,22.70
2018-02-06T09:15:15.269Z,21.03
2018-02-06T09:17:42.925Z,23.47
2018-02-06T09:20:10.614Z,22.70
2018-02-06T09:22:38.323Z,23.77
2018-02-06T09:25:06.731Z,28.30
2018-02-06T09:27:34.413Z,23.83
2018-02-06T09:30:02.086Z,29.83
2018-02-06T09:32:29.764Z,21.90
2018-02-06T09:34:58.247Z,19.70
2018-02-06T09:37:26.700Z,24.33
2018-02-06T09:39:54.333Z,23.13
2018-02-06T09:42:22.016Z,20.67
2018-02-06T09:44:49.693Z,20.77
2018-02-06T09:47:17.354Z,23.93
2018-02-06T09:49:45.063Z,25.27
2018-02-06T09:52:12.727Z,22.33
2018-02-06T09:54:40.378Z,20.93
2018-02-06T09:57:08.833Z,16.53
2018-02-06T09:59:37.252Z,19.77
2018-02-06T10:02:04.928Z,16.90
2018-02-06T10:04:32.580Z,20.33
2018-02-06T10:07:00.246Z,19.50
2018-02-06T10:09:27.882Z,18.77
2018-02-06T10:11:55.709Z,16.57
2018-02-06T10:14:24.303Z,17.63
2018-02-06T10:16:52.067Z,20.17
2018-02-06T10:19:20.616Z,16.97
2018-02-06T10:21:48.413Z,16.40
2018-02-06T10:24:16.176Z,18.93
2018-02-06T10:26:43.963Z,25.83
2018-02-06T10:29:11.787Z,15.17
2018-02-06T10:31:40.352Z,15.50
2018-02-06T10:34:08.183Z,20.53
2018-02-06T10:36:35.975Z,16.23
2018-02-06T10:39:03.891Z,16.30
2018-02-06T10:41:31.680Z,17.17
2018-02-06T10:43:59.365Z,15.73
2018-02-06T10:46:27.029Z,17.03
2018-02-06T10:49:00.556Z,15.60
2018-02-06T10:51:29.021Z,16.40
2018-02-06T10:53:56.727Z,17.33
2018-02-06T10:56:24.408Z,20.30
2018-02-06T10:58:52.061Z,17.23
2018-02-06T11:01:19.723Z,19.53
2018-02-06T11:03:47.396Z,18.50
2018-02-06T11:06:15.026Z,18.20
2018-02-06T11:08:42.739Z,17.70
2018-02-06T11:11:10.405Z,18.13
2018-02-06T11:13:38.067Z,16.30
2018-02-06T11:16:05.734Z,18.53
2018-02-06T11:18:33.377Z,20.37
2018-02-06T11:21:01.043Z,19.00
2018-02-06T11:23:28.714Z,19.50
2018-02-06T11:25:56.410Z,17.23
2018-02-06T11:28:24.099Z,20.70
2018-02-06T11:30:51.765Z,16.33
2018-02-06T11:33:19.426Z,18.30
2018-02-06T11:35:47.075Z,18.83
2018-02-06T11:38:14.746Z,21.13
2018-02-06T11:40:42.395Z,16.80
2018-02-06T11:43:10.073Z,18.83
2018-02-06T11:45:37.738Z,19.43
2018-02-06T11:48:05.398Z,19.77
2018-02-06T11:50:33.070Z,23.67
2018-02-06T11:53:00.741Z,20.10
2018-02-06T11:55:28.454Z,18.07
2018-02-06T11:57:56.094Z,19.47
2018-02-06T12:00:24.583Z,18.83
2018-02-06T12:02:52.266Z,21.23
2018-02-06T12:05:19.927Z,19.63
2018-02-06T12:07:47.567Z,20.97
2018-02-06T12:10:15.215Z,17.10
2018-02-06T12:12:43.686Z,21.27
2018-02-06T12:15:12.138Z,19.80
2018-02-06T12:17:39.779Z,19.97
2018-02-06T12:20:07.419Z,16.23
2018-02-06T12:22:35.063Z,20.40
2018-02-06T12:25:02.711Z,19.07
2018-02-06T12:27:31.113Z,19.33
2018-02-06T12:29:58.759Z,22.20
2018-02-06T12:32:26.401Z,21.57
2018-02-06T12:34:54.811Z,17.37
2018-02-06T12:37:22.456Z,18.13
2018-02-06T12:39:50.134Z,18.57
2018-02-06T12:42:17.776Z,19.97
2018-02-06T12:44:45.445Z,16.90
2018-02-06T12:47:13.154Z,18.40
2018-02-06T12:49:40.789Z,20.23
2018-02-06T12:52:08.432Z,22.27
2018-02-06T12:54:36.089Z,17.47
2018-02-06T12:57:03.752Z,19.10
2018-02-06T13:01:59.797Z,19.97
2018-02-06T13:04:27.451Z,21.23
2018-02-06T13:06:55.120Z,18.70
2018-02-06T13:09:22.811Z,19.73
2018-02-06T13:11:50.458Z,21.50
2018-02-06T13:14:18.101Z,17.97
2018-02-06T13:16:46.502Z,25.40
2018-02-06T13:19:14.911Z,20.20
2018-02-06T13:21:43.313Z,21.67
2018-02-06T13:24:10.955Z,18.57
2018-02-06T13:26:39.359Z,21.40
2018-02-06T13:29:07.118Z,20.53
2018-02-06T13:31:34.938Z,18.40
2018-02-06T13:34:03.596Z,23.13
2018-02-06T13:36:31.436Z,18.57
2018-02-06T13:38:59.289Z,19.90
2018-02-06T13:41:27.124Z,18.37
2018-02-06T13:43:56.146Z,22.73
2018-02-06T13:46:24.600Z,18.83
2018-02-06T13:48:53.044Z,18.20
2018-02-06T13:51:21.387Z,17.63
2018-02-06T13:53:49.982Z,19.87
2018-02-06T13:56:18.492Z,20.73
2018-02-06T13:58:46.972Z,21.87
2018-02-06T14:01:14.740Z,18.57
2018-02-06T14:03:42.401Z,16.77
2018-02-06T14:06:10.078Z,18.47
2018-02-06T14:08:37.726Z,17.97
2018-02-06T14:11:05.379Z,22.90
2018-02-06T14:13:33.017Z,19.87
2018-02-06T14:16:00.660Z,18.70
2018-02-06T14:18:28.313Z,20.40
2018-02-06T14:20:55.980Z,20.40
2018-02-06T14:23:23.611Z,21.43
2018-02-06T14:25:52.040Z,19.20
2018-02-06T14:28:19.681Z,19.57
2018-02-06T14:30:47.334Z,23.10
2018-02-06T14:33:14.982Z,18.33
2018-02-06T14:35:43.410Z,21.37
2018-02-06T14:38:17.832Z,21.17
2018-02-06T14:40:45.479Z,22.00
2018-02-06T14:43:13.168Z,20.80
2018-02-06T14:45:40.878Z,19.90
2018-02-06T14:48:08.535Z,24.47
2018-02-06T14:50:36.201Z,24.60
2018-02-06T14:53:03.868Z,21.47
2018-02-06T14:55:31.553Z,20.77
2018-02-06T14:58:00.097Z,23.27
2018-02-06T15:00:27.806Z,26.93
2018-02-06T15:02:55.527Z,22.57
2018-02-06T15:05:23.226Z,19.70
2018-02-06T15:07:50.916Z,22.07
2018-02-06T15:10:19.366Z,22.13
2018-02-06T15:12:47.036Z,25.20
2018-02-06T15:15:14.730Z,24.27
2018-02-06T15:17:43.212Z,21.50
2018-02-06T15:20:10.921Z,21.67
2018-02-06T15:22:38.619Z,21.10
2018-02-06T15:25:07.098Z,19.10
2018-02-06T15:27:34.739Z,23.63
2018-02-06T15:30:02.683Z,22.53
2018-02-06T15:32:30.379Z,20.43
2018-02-06T15:34:58.856Z,20.77
2018-02-06T15:37:26.520Z,21.30
2018-02-06T15:39:54.221Z,21.60
2018-02-06T15:42:21.884Z,22.70
2018-02-06T15:44:49.569Z,20.67
2018-02-06T15:47:17.256Z,22.73
2018-02-06T15:49:44.903Z,22.63
2018-02-06T15:52:12.591Z,21.57
2018-02-06T15:54:40.246Z,24.13
2018-02-06T15:57:07.930Z,20.27
2018-02-06T15:59:36.361Z,23.53
2018-02-06T16:02:04.085Z,23.57
2018-02-06T16:04:31.765Z,21.20
2018-02-06T16:06:59.429Z,23.87
2018-02-06T16:09:27.288Z,21.63
2018-02-06T16:11:54.998Z,19.13
2018-02-06T16:14:23.460Z,19.30
2018-02-06T16:16:51.145Z,21.80
2018-02-06T16:19:19.576Z,21.93
2018-02-06T16:21:47.239Z,22.57
2018-02-06T16:24:14.915Z,18.93
2018-02-06T16:26:42.565Z,20.53
2018-02-06T16:29:10.222Z,17.67
2018-02-06T16:31:37.868Z,25.53
2018-02-06T16:34:05.552Z,22.10
2018-02-06T16:36:33.229Z,19.77
2018-02-06T16:39:00.912Z,27.50
2018-02-06T16:41:29.328Z,20.77
2018-02-06T16:43:57.019Z,22.40
2018-02-06T16:46:24.711Z,22.30
2018-02-06T16:48:53.161Z,19.80
2018-02-06T16:51:20.868Z,20.40
2018-02-06T16:53:49.338Z,20.63
2018-02-06T16:56:17.782Z,21.37
2018-02-06T16:58:45.447Z,23.37
2018-02-06T17:01:13.255Z,22.47
2018-02-06T17:03:40.932Z,18.30
2018-02-06T17:06:08.588Z,19.20
2018-02-06T17:08:36.294Z,20.63
2018-02-06T17:11:03.977Z,20.60
2018-02-06T17:13:32.423Z,20.47
2018-02-06T17:16:00.074Z,22.17
2018-02-06T17:18:28.471Z,21.27
2018-02-06T17:20:57.078Z,19.97
2018-02-06T17:23:26.452Z,19.83
2018-02-06T17:25:54.917Z,22.03
2018-02-06T17:28:23.422Z,19.37
2018-02-06T17:30:51.988Z,20.63
2018-02-06T17:33:20.463Z,20.87
2018-02-06T17:35:48.936Z,18.60
2018-02-06T17:38:17.432Z,21.57
2018-02-06T17:40:46.024Z,20.50
2018-02-06T17:43:14.488Z,20.37
2018-02-06T17:45:42.993Z,22.40
2018-02-06T17:48:10.837Z,22.93
2018-02-06T17:50:38.631Z,20.37
2018-02-06T17:53:07.066Z,21.43
2018-02-06T17:55:34.826Z,24.40
2018-02-06T17:58:02.581Z,23.73
2018-02-06T18:00:30.297Z,19.77
2018-02-06T18:02:58.819Z,19.77
2018-02-06T18:05:26.641Z,19.07
2018-02-06T18:07:55.109Z,22.57
2018-02-06T18:10:22.814Z,20.50
2018-02-06T18:12:50.507Z,22.23
2018-02-06T18:15:18.198Z,23.60
2018-02-06T18:17:45.902Z,25.07
2018-02-06T18:20:15.200Z,20.20
2018-02-06T18:22:44.196Z,21.57
2018-02-06T18:25:11.921Z,21.77
2018-02-06T18:27:40.372Z,21.47
2018-02-06T18:30:08.106Z,18.70
2018-02-06T18:32:35.814Z,21.00
2018-02-06T18:35:03.518Z,20.70
2018-02-06T18:37:31.226Z,19.23
2018-02-06T18:39:58.890Z,21.10
2018-02-06T18:42:27.312Z,20.03
2018-02-06T18:44:54.981Z,20.97
2018-02-06T18:47:22.639Z,24.67
2018-02-06T18:49:50.337Z,20.93
2018-02-06T18:52:18.036Z,20.37
2018-02-06T18:54:45.718Z,25.37
2018-02-06T18:57:13.410Z,24.07
2018-02-06T18:59:41.104Z,24.97
2018-02-06T19:02:09.691Z,22.73
2018-02-06T19:04:38.124Z,21.93
2018-02-06T19:07:05.796Z,23.73
2018-02-06T19:09:33.517Z,23.17
2018-02-06T19:12:01.201Z,20.90
2018-02-06T19:14:28.867Z,27.73
2018-02-06T19:16:56.581Z,22.60
2018-02-06T19:19:25.029Z,22.50
2018-02-06T19:21:53.576Z,19.53
2018-02-06T19:24:21.298Z,23.73
2018-02-06T19:26:49.038Z,23.43
2018-02-06T19:29:16.763Z,24.67
2018-02-06T19:31:44.509Z,22.43
2018-02-06T19:34:12.233Z,23.40
2018-02-06T19:36:39.974Z,21.23
2018-02-06T19:39:07.693Z,23.93
2018-02-06T19:41:35.429Z,21.37
2018-02-06T19:44:03.961Z,27.03
2018-02-06T19:46:31.678Z,20.37
2018-02-06T19:49:00.260Z,23.83
2018-02-06T19:51:28.758Z,24.23
2018-02-06T19:53:57.245Z,22.67
2018-02-06T19:56:24.978Z,23.17
2018-02-06T19:58:52.680Z,20.73
2018-02-06T20:01:20.399Z,23.13
2018-02-06T20:03:48.172Z,24.37
2018-02-06T20:06:16.808Z,21.77
2018-02-06T20:08:44.535Z,22.07
2018-02-06T20:11:12.252Z,22.30
2018-02-06T20:13:40.001Z,20.03
2018-02-06T20:16:07.810Z,21.63
2018-02-06T20:18:36.278Z,24.60
2018-02-06T20:21:04.785Z,24.50
2018-02-06T20:23:32.521Z,21.73
2018-02-06T20:26:01.989Z,20.40
2018-02-06T20:28:29.870Z,22.10
2018-02-06T20:30:57.619Z,20.03
2018-02-06T20:33:25.399Z,18.83
2018-02-06T20:35:53.154Z,23.17
2018-02-06T20:38:20.954Z,24.30
2018-02-06T20:40:49.525Z,22.67
2018-02-06T20:43:18.021Z,24.30
2018-02-06T20:45:46.525Z,23.47
2018-02-06T20:48:14.296Z,24.53
2018-02-06T20:50:42.024Z,27.33
2018-02-06T20:53:09.813Z,26.93
2018-02-06T20:55:41.073Z,28.20
2018-02-06T20:58:08.912Z,24.70
2018-02-06T21:00:36.644Z,25.13
2018-02-06T21:03:05.211Z,23.10
2018-02-06T21:05:33.672Z,22.27
2018-02-06T21:08:01.445Z,22.20
2018-02-06T21:10:29.212Z,21.37
2018-02-06T21:12:58.069Z,23.17
2018-02-06T21:15:26.395Z,24.40
2018-02-06T21:17:54.941Z,21.10
2018-02-06T21:20:22.738Z,22.33
2018-02-06T21:22:50.571Z,25.37
2018-02-06T21:25:18.387Z,26.57
2018-02-06T21:27:46.132Z,24.00
2018-02-06T21:30:13.900Z,24.73
2018-02-06T21:32:42.415Z,25.67
2018-02-06T21:35:10.154Z,21.07
2018-02-06T21:37:38.633Z,22.13
2018-02-06T21:40:07.172Z,26.50
2018-02-06T21:42:34.886Z,19.30
2018-02-06T21:45:02.600Z,23.93
2018-02-06T21:47:30.317Z,41.73
2018-02-06T21:49:58.019Z,24.27
2018-02-06T21:52:25.740Z,20.67
2018-02-06T21:54:54.365Z,20.33
2018-02-06T21:57:22.167Z,20.30
2018-02-06T21:59:50.666Z,20.43
2018-02-06T22:02:18.370Z,21.90
2018-02-06T22:04:46.167Z,19.33
2018-02-06T22:07:14.691Z,20.30
2018-02-06T22:09:42.402Z,20.67
2018-02-06T22:12:10.154Z,20.43
2018-02-06T22:14:37.867Z,23.73
2018-02-06T22:17:05.637Z,20.47
2018-02-06T22:19:33.356Z,22.13
2018-02-06T22:22:01.833Z,20.47
2018-02-06T22:24:29.548Z,21.37
2018-02-06T22:26:57.235Z,21.23
2018-02-06T22:29:24.952Z,20.73
2018-02-06T22:31:52.643Z,23.40
2018-02-06T22:34:20.353Z,22.90
2018-02-06T22:36:48.782Z,22.23
2018-02-06T22:39:16.450Z,21.57
2018-02-06T22:41:44.158Z,20.47
2018-02-06T22:44:12.605Z,24.83
2018-02-06T22:46:40.294Z,22.63
2018-02-06T22:49:08.757Z,22.07
2018-02-06T22:51:36.447Z,22.37
2018-02-06T22:54:04.904Z,19.87
2018-02-06T22:56:32.621Z,23.77
2018-02-06T22:59:00.331Z,21.23
2018-02-06T23:01:28.791Z,23.80
2018-02-06T23:03:56.510Z,19.20
2018-02-06T23:06:24.202Z,23.80
2018-02-06T23:08:51.881Z,21.40
2018-02-06T23:11:19.593Z,20.33
2018-02-06T23:13:47.299Z,20.30
2018-02-06T23:16:14.966Z,22.00
2018-02-06T23:18:42.641Z,19.23
2018-02-06T23:21:11.087Z,20.20
2018-02-06T23:23:38.813Z,22.23
2018-02-06T23:26:06.517Z,20.80
2018-02-06T23:28:34.214Z,19.83
2018-02-06T23:31:02.674Z,19.47
2018-02-06T23:33:30.365Z,18.93
2018-02-06T23:35:58.025Z,16.13
2018-02-06T23:38:25.734Z,15.97
2018-02-06T23:40:53.443Z,19.43
2018-02-06T23:43:21.918Z,19.03
2018-02-06T23:45:50.371Z,17.33
2018-02-06T23:48:18.079Z,18.03
2018-02-06T23:50:45.941Z,18.60
2018-02-06T23:53:13.630Z,21.13
2018-02-06T23:55:41.334Z,17.40
2018-02-06T23:58:09.254Z,18.47
